Time;durP1;ratioP1;P1;durP2;ratioP2;P2;SDS_P1;SDS_P2;PMS_P1;PMS_P2;Temp;Humidity;BMP_temperature;BMP_pressure;BME280_temperature;BME280_humidity;BME280_pressure;Samples;Min_cycle;Max_cycle;Signal;HPM_P1;HPM_P2
2023/07/22 00:01:34;;;;;;;15.38;7.10;;;14.70;99.90;;;;;;6128510;23;20017;-86
2023/07/22 00:04:00;;;;;;;12.63;5.97;;;14.70;99.90;;;;;;6151813;23;20016;-87
2023/07/22 00:06:26;;;;;;;16.02;7.22;;;14.60;99.90;;;;;;6152385;23;20365;-86
2023/07/22 00:08:53;;;;;;;13.13;6.40;;;14.70;99.90;;;;;;6153176;23;20017;-86
2023/07/22 00:11:22;;;;;;;13.10;6.43;;;14.70;99.90;;;;;;6155052;23;20453;-87
2023/07/22 00:13:48;;;;;;;15.25;6.90;;;14.70;99.90;;;;;;6180264;23;20501;-86
2023/07/22 00:16:14;;;;;;;13.10;6.68;;;14.70;99.90;;;;;;6153389;23;20005;-87
2023/07/22 00:18:39;;;;;;;14.45;6.68;;;14.70;99.90;;;;;;6152315;23;20383;-86
2023/07/22 00:21:06;;;;;;;12.20;5.22;;;14.70;99.90;;;;;;6152702;23;20005;-86
2023/07/22 00:23:32;;;;;;;10.43;5.43;;;14.70;99.90;;;;;;6152399;23;20340;-86
2023/07/22 00:25:58;;;;;;;12.40;6.00;;;14.70;99.90;;;;;;6127221;23;20129;-86
2023/07/22 00:28:23;;;;;;;12.05;6.00;;;14.70;99.90;;;;;;6178736;23;20013;-86
2023/07/22 00:30:49;;;;;;;13.55;5.97;;;14.60;99.90;;;;;;6152746;23;20092;-87
2023/07/22 00:33:15;;;;;;;13.15;6.03;;;14.60;99.90;;;;;;6179097;23;20017;-87
2023/07/22 00:35:41;;;;;;;13.18;5.82;;;14.50;99.90;;;;;;6152991;23;20059;-86
2023/07/22 00:38:07;;;;;;;10.95;5.75;;;14.60;99.90;;;;;;6130104;23;20017;-87
2023/07/22 00:40:32;;;;;;;13.75;5.88;;;14.50;99.90;;;;;;6130603;23;20021;-86
2023/07/22 00:43:01;;;;;;;10.02;5.15;;;14.50;99.90;;;;;;6153419;23;20017;-86
2023/07/22 00:45:29;;;;;;;12.07;5.80;;;14.50;99.90;;;;;;6152688;23;20024;-86
2023/07/22 00:47:55;;;;;;;14.40;7.22;;;14.40;99.90;;;;;;6151355;23;20013;-86
2023/07/22 00:50:22;;;;;;;12.45;5.57;;;14.40;99.90;;;;;;6150632;23;20085;-86
2023/07/22 00:52:48;;;;;;;13.30;6.45;;;14.30;99.90;;;;;;6150998;23;20013;-86
2023/07/22 00:55:14;;;;;;;11.98;6.35;;;14.30;99.90;;;;;;6178013;23;20417;-87
2023/07/22 00:57:39;;;;;;;8.85;4.45;;;14.30;99.90;;;;;;6150221;23;20013;-86
2023/07/22 01:00:06;;;;;;;11.82;6.07;;;14.30;99.90;;;;;;6149822;23;20017;-86
2023/07/22 01:02:32;;;;;;;12.95;5.85;;;14.30;99.90;;;;;;6151643;23;20051;-86
2023/07/22 01:04:58;;;;;;;12.43;5.68;;;14.40;99.90;;;;;;6150544;23;20025;-86
2023/07/22 01:07:24;;;;;;;12.48;5.97;;;14.20;99.90;;;;;;6151514;23;20017;-87
2023/07/22 01:09:58;;;;;;;11.30;5.93;;;14.20;99.90;;;;;;6151988;23;20072;-86
2023/07/22 01:12:24;;;;;;;16.57;7.37;;;14.20;99.90;;;;;;6178876;23;20021;-86
2023/07/22 01:14:50;;;;;;;15.20;6.55;;;14.20;99.90;;;;;;6179882;23;20209;-86
2023/07/22 01:17:16;;;;;;;12.48;6.72;;;14.10;99.90;;;;;;6179940;23;20009;-86
2023/07/22 01:19:43;;;;;;;14.90;7.20;;;14.10;99.90;;;;;;6180768;23;20020;-86
2023/07/22 01:22:10;;;;;;;13.27;6.60;;;14.10;99.90;;;;;;6151960;23;20051;-86
2023/07/22 01:24:38;;;;;;;11.88;6.38;;;14.10;99.90;;;;;;6178763;23;20013;-86
2023/07/22 01:27:08;;;;;;;12.55;6.03;;;14.00;99.90;;;;;;6151644;23;20009;-85
2023/07/22 01:29:34;;;;;;;13.18;5.95;;;14.10;99.90;;;;;;6152382;23;20051;-86
2023/07/22 01:32:00;;;;;;;12.18;6.20;;;14.10;99.90;;;;;;6153708;23;20512;-85
2023/07/22 01:34:26;;;;;;;15.45;6.35;;;14.10;99.90;;;;;;6150941;23;20056;-86
2023/07/22 01:36:53;;;;;;;13.65;5.78;;;14.10;99.90;;;;;;6149747;23;20073;-86
2023/07/22 01:39:19;;;;;;;13.68;7.38;;;14.10;99.90;;;;;;6174519;23;20011;-86
2023/07/22 01:41:46;;;;;;;12.57;6.22;;;14.00;99.90;;;;;;6176009;23;20017;-86
2023/07/22 01:44:11;;;;;;;9.82;5.75;;;14.00;99.90;;;;;;6175063;23;20021;-86
2023/07/22 01:46:37;;;;;;;10.30;5.93;;;14.00;99.90;;;;;;6176725;23;20019;-86
2023/07/22 01:49:12;;;;;;;14.57;6.80;;;14.00;99.90;;;;;;6176570;23;20021;-86
2023/07/22 01:51:38;;;;;;;13.02;6.65;;;14.00;99.90;;;;;;6148910;23;20032;-86
2023/07/22 01:54:05;;;;;;;15.35;5.25;;;13.90;99.90;;;;;;6150621;23;20005;-85
2023/07/22 01:56:31;;;;;;;14.25;7.00;;;13.90;99.90;;;;;;6177148;23;20016;-85
2023/07/22 01:58:56;;;;;;;12.93;6.68;;;13.90;99.90;;;;;;6124051;23;20049;-86
2023/07/22 02:01:22;;;;;;;16.85;6.90;;;13.90;99.90;;;;;;6150752;23;20091;-85
2023/07/22 02:03:50;;;;;;;15.38;7.18;;;13.90;99.90;;;;;;6149061;23;20322;-85
2023/07/22 02:06:15;;;;;;;13.00;6.30;;;13.80;99.90;;;;;;6150622;23;20016;-85
2023/07/22 02:08:41;;;;;;;12.40;5.63;;;13.80;99.90;;;;;;6149195;23;20269;-85
2023/07/22 02:11:10;;;;;;;10.70;5.38;;;13.80;99.90;;;;;;6150044;23;20048;-86
2023/07/22 02:13:36;;;;;;;16.50;6.78;;;13.70;99.90;;;;;;6150494;23;20082;-85
2023/07/22 02:16:03;;;;;;;13.63;6.72;;;13.70;99.90;;;;;;6150514;23;20515;-85
2023/07/22 02:18:29;;;;;;;10.52;5.60;;;13.70;99.90;;;;;;6125393;23;20020;-85
2023/07/22 02:20:55;;;;;;;11.48;6.18;;;13.60;99.90;;;;;;6125854;23;20092;-86
2023/07/22 02:23:22;;;;;;;11.38;5.85;;;13.60;99.90;;;;;;6103535;23;1132059;-85
2023/07/22 02:25:52;;;;;;;10.63;4.80;;;13.60;99.90;;;;;;6179671;23;20047;-86
2023/07/22 02:28:21;;;;;;;13.35;7.15;;;13.60;99.90;;;;;;6152451;23;20023;-86
2023/07/22 02:30:47;;;;;;;12.52;6.13;;;13.60;99.90;;;;;;6152130;23;20021;-85
2023/07/22 02:33:13;;;;;;;10.90;6.07;;;13.60;99.90;;;;;;6126487;23;20411;-85
2023/07/22 02:35:41;;;;;;;15.88;6.88;;;13.60;99.90;;;;;;6152084;23;20099;-86
2023/07/22 02:38:07;;;;;;;10.05;6.22;;;13.60;99.90;;;;;;6178821;23;20024;-85
2023/07/22 02:40:40;;;;;;;11.32;5.90;;;13.50;99.90;;;;;;6151995;23;20032;-86
2023/07/22 02:43:06;;;;;;;14.30;5.47;;;13.50;99.90;;;;;;6151290;23;20013;-86
2023/07/22 02:45:33;;;;;;;11.23;5.28;;;13.50;99.90;;;;;;6150970;23;20017;-86
2023/07/22 02:47:59;;;;;;;10.95;6.00;;;13.50;99.90;;;;;;6151485;23;20013;-85
2023/07/22 02:50:25;;;;;;;12.45;6.45;;;13.50;99.90;;;;;;6151049;23;20475;-85
2023/07/22 02:52:54;;;;;;;11.73;6.35;;;13.50;99.90;;;;;;6151662;23;20247;-86
2023/07/22 02:55:20;;;;;;;13.02;6.05;;;13.40;99.90;;;;;;6150542;23;20336;-85
2023/07/22 02:57:46;;;;;;;12.00;5.85;;;13.40;99.90;;;;;;6149791;23;20016;-86
2023/07/22 03:00:17;;;;;;;13.10;6.43;;;13.40;99.90;;;;;;6152005;23;20016;-86
2023/07/22 03:02:43;;;;;;;13.40;6.13;;;13.40;99.90;;;;;;6149651;23;20458;-85
2023/07/22 03:05:09;;;;;;;11.43;6.20;;;13.40;99.90;;;;;;6151407;23;20096;-85
2023/07/22 03:07:39;;;;;;;11.43;5.78;;;13.40;99.90;;;;;;6151935;23;20019;-85
2023/07/22 03:10:06;;;;;;;11.23;5.50;;;13.30;99.90;;;;;;6151566;23;20053;-85
2023/07/22 03:12:32;;;;;;;12.13;6.25;;;13.30;99.90;;;;;;6176420;23;20092;-85
2023/07/22 03:14:58;;;;;;;13.70;7.38;;;13.30;99.90;;;;;;6151620;23;20096;-86
2023/07/22 03:17:24;;;;;;;10.68;5.05;;;13.40;99.90;;;;;;6125849;23;20392;-85
2023/07/22 03:19:50;;;;;;;11.10;5.97;;;13.30;99.90;;;;;;6178721;23;20088;-86
2023/07/22 03:22:16;;;;;;;12.85;5.65;;;13.30;99.90;;;;;;6150847;23;20024;-86
2023/07/22 03:24:44;;;;;;;10.32;5.40;;;13.20;99.90;;;;;;6150307;23;20025;-85
2023/07/22 03:27:13;;;;;;;12.73;6.90;;;13.20;99.90;;;;;;6177237;23;20028;-85
2023/07/22 03:29:40;;;;;;;11.90;6.07;;;13.20;99.90;;;;;;6150014;23;20017;-86
2023/07/22 03:32:06;;;;;;;14.45;6.72;;;13.20;99.90;;;;;;6150660;23;20021;-86
2023/07/22 03:34:32;;;;;;;13.02;6.38;;;13.20;99.90;;;;;;6178190;23;20013;-85
2023/07/22 03:36:58;;;;;;;15.13;5.82;;;13.10;99.90;;;;;;6178789;23;20009;-86
2023/07/22 03:39:24;;;;;;;11.60;5.82;;;13.10;99.90;;;;;;6127524;23;20055;-84
2023/07/22 03:41:50;;;;;;;12.50;6.10;;;13.20;99.90;;;;;;6150902;23;20028;-85
2023/07/22 03:44:16;;;;;;;11.48;5.93;;;13.10;99.90;;;;;;6178003;23;20013;-85
2023/07/22 03:46:41;;;;;;;9.85;4.90;;;13.10;99.90;;;;;;6177805;23;20372;-85
2023/07/22 03:49:07;;;;;;;11.57;5.10;;;13.10;99.90;;;;;;6151158;23;20020;-85
2023/07/22 03:51:33;;;;;;;12.30;6.03;;;13.10;99.90;;;;;;6126334;23;20009;-85
2023/07/22 03:53:59;;;;;;;11.77;5.63;;;13.10;99.90;;;;;;6149723;23;20071;-86
2023/07/22 03:56:24;;;;;;;9.27;4.68;;;13.10;99.90;;;;;;6150223;23;20426;-85
2023/07/22 03:58:51;;;;;;;10.70;5.57;;;13.10;99.90;;;;;;6151341;23;20024;-85
2023/07/22 04:01:17;;;;;;;10.98;6.03;;;13.10;99.90;;;;;;6176496;23;20087;-85
2023/07/22 04:03:42;;;;;;;12.25;5.93;;;13.20;99.90;;;;;;6150546;23;20012;-85
2023/07/22 04:06:08;;;;;;;12.43;5.93;;;13.00;99.90;;;;;;6177615;23;20495;-85
2023/07/22 04:08:34;;;;;;;13.02;5.78;;;13.00;99.90;;;;;;6150576;23;20017;-85
2023/07/22 04:10:59;;;;;;;12.95;6.00;;;13.00;99.90;;;;;;6150984;23;20483;-85
2023/07/22 04:13:26;;;;;;;11.90;6.20;;;13.00;99.90;;;;;;6151313;23;20994;-85
2023/07/22 04:15:52;;;;;;;12.90;6.25;;;13.00;99.90;;;;;;6150707;23;20453;-85
2023/07/22 04:18:21;;;;;;;12.27;5.70;;;13.00;99.90;;;;;;6151167;23;20095;-85
2023/07/22 04:20:50;;;;;;;12.60;6.47;;;12.90;99.90;;;;;;6149631;23;20009;-85
2023/07/22 04:23:16;;;;;;;10.32;5.35;;;13.00;99.90;;;;;;6150255;23;20547;-85
2023/07/22 04:25:43;;;;;;;12.40;7.07;;;13.00;99.90;;;;;;6151779;23;20039;-85
2023/07/22 04:28:09;;;;;;;14.55;6.93;;;12.90;99.90;;;;;;6150230;23;20009;-85
2023/07/22 04:30:36;;;;;;;14.15;6.53;;;12.90;99.90;;;;;;6176523;23;20459;-85
2023/07/22 04:33:03;;;;;;;12.45;6.70;;;13.00;99.90;;;;;;6150684;23;20013;-85
2023/07/22 04:35:33;;;;;;;11.77;5.85;;;13.00;99.90;;;;;;6151283;23;20017;-85
2023/07/22 04:37:58;;;;;;;14.02;6.85;;;13.00;99.90;;;;;;6176018;23;20467;-85
2023/07/22 04:40:25;;;;;;;15.32;7.70;;;13.10;99.90;;;;;;6150797;23;20013;-85
2023/07/22 04:42:51;;;;;;;13.85;7.03;;;13.20;99.90;;;;;;6150476;23;20095;-84
2023/07/22 04:45:18;;;;;;;12.65;7.07;;;13.20;99.90;;;;;;6150705;23;20384;-85
2023/07/22 04:47:46;;;;;;;13.63;7.28;;;13.20;99.90;;;;;;6125066;23;20059;-85
2023/07/22 04:50:13;;;;;;;14.77;7.68;;;13.30;99.90;;;;;;6177349;23;20040;-84
2023/07/22 04:52:41;;;;;;;15.65;7.38;;;13.20;99.90;;;;;;6149375;23;20021;-85
2023/07/22 04:55:09;;;;;;;15.82;6.90;;;13.30;99.90;;;;;;6150479;23;20028;-85
2023/07/22 04:57:45;;;;;;;13.30;6.05;;;13.30;99.90;;;;;;6125325;23;20005;-84
2023/07/22 05:00:14;;;;;;;15.38;6.97;;;13.30;99.90;;;;;;6149708;23;20071;-85
2023/07/22 05:02:40;;;;;;;13.85;7.78;;;13.30;99.90;;;;;;6150218;23;20520;-85
2023/07/22 05:05:06;;;;;;;16.30;8.43;;;13.30;99.90;;;;;;6175726;23;20084;-85
2023/07/22 05:07:32;;;;;;;15.82;7.50;;;13.30;99.90;;;;;;6147706;23;20021;-84
2023/07/22 05:09:58;;;;;;;19.08;7.90;;;13.30;99.90;;;;;;6179685;23;20514;-86
2023/07/22 05:12:23;;;;;;;14.30;7.75;;;13.40;99.90;;;;;;6127893;23;20017;-86
2023/07/22 05:14:49;;;;;;;16.25;7.78;;;13.40;99.90;;;;;;6153458;23;20017;-86
2023/07/22 05:17:15;;;;;;;16.92;7.90;;;13.40;99.90;;;;;;6179307;23;20024;-86
2023/07/22 05:19:41;;;;;;;13.85;7.15;;;13.40;99.90;;;;;;6154873;23;20016;-86
2023/07/22 05:22:07;;;;;;;14.65;7.63;;;13.40;99.90;;;;;;6180404;23;20496;-86
2023/07/22 05:24:33;;;;;;;15.23;7.38;;;13.40;99.90;;;;;;6180933;23;20344;-86
2023/07/22 05:26:59;;;;;;;17.58;8.32;;;13.50;99.90;;;;;;6181549;23;20010;-86
2023/07/22 05:29:24;;;;;;;13.60;7.97;;;13.50;99.90;;;;;;6153765;23;20096;-86
2023/07/22 05:31:50;;;;;;;15.55;8.20;;;13.50;99.90;;;;;;6154828;23;20013;-87
2023/07/22 05:34:16;;;;;;;15.80;8.38;;;13.50;99.90;;;;;;6153617;23;20508;-86
2023/07/22 05:36:41;;;;;;;15.80;8.93;;;13.60;99.90;;;;;;6180552;23;20013;-86
2023/07/22 05:39:07;;;;;;;18.55;8.90;;;13.60;99.90;;;;;;6154791;23;20021;-86
2023/07/22 05:41:33;;;;;;;21.48;9.80;;;13.80;99.90;;;;;;6181139;23;20021;-87
2023/07/22 05:43:59;;;;;;;16.17;8.55;;;13.70;99.90;;;;;;6154645;23;20009;-86
2023/07/22 05:46:25;;;;;;;14.88;8.85;;;13.80;99.90;;;;;;6154325;23;20070;-86
2023/07/22 05:48:50;;;;;;;19.85;9.82;;;13.90;99.90;;;;;;6154710;23;20009;-86
2023/07/22 05:51:17;;;;;;;19.60;10.27;;;13.90;99.90;;;;;;6152874;23;20009;-88
2023/07/22 05:53:43;;;;;;;20.05;9.55;;;13.90;99.90;;;;;;6154972;23;20017;-88
2023/07/22 05:56:09;;;;;;;18.92;10.18;;;14.00;99.90;;;;;;6154778;23;20009;-88
2023/07/22 05:58:35;;;;;;;19.00;9.55;;;14.30;99.90;;;;;;6181167;23;20491;-88
2023/07/22 06:01:01;;;;;;;18.85;10.05;;;14.00;99.90;;;;;;6153713;23;20044;-88
2023/07/22 06:03:27;;;;;;;19.20;9.48;;;14.10;99.90;;;;;;6128231;23;20024;-87
2023/07/22 06:05:53;;;;;;;19.08;9.85;;;14.20;99.90;;;;;;6153890;23;20349;-88
2023/07/22 06:08:19;;;;;;;19.33;10.25;;;14.20;99.90;;;;;;6127305;23;20027;-88
2023/07/22 06:10:45;;;;;;;18.00;10.27;;;14.30;99.90;;;;;;6151208;23;20449;-87
2023/07/22 06:13:11;;;;;;;16.92;9.82;;;14.40;99.90;;;;;;6153256;23;20096;-88
2023/07/22 06:15:36;;;;;;;18.92;9.57;;;14.40;99.90;;;;;;6152628;23;20017;-89
2023/07/22 06:18:02;;;;;;;16.27;9.70;;;14.40;99.90;;;;;;6125216;23;20017;-86
2023/07/22 06:20:29;;;;;;;16.55;9.38;;;14.50;99.90;;;;;;6151168;23;20024;-86
2023/07/22 06:22:55;;;;;;;18.60;10.13;;;14.50;99.90;;;;;;6153579;23;20032;-86
2023/07/22 06:25:20;;;;;;;18.80;9.57;;;14.60;99.90;;;;;;6181197;23;20095;-86
2023/07/22 06:27:46;;;;;;;18.02;9.82;;;14.60;99.90;;;;;;6152738;23;20523;-87
2023/07/22 06:30:12;;;;;;;16.63;10.02;;;14.70;99.90;;;;;;6154241;23;20332;-88
2023/07/22 06:32:41;;;;;;;20.23;9.80;;;14.70;99.90;;;;;;6154984;23;20075;-87
2023/07/22 06:35:10;;;;;;;17.38;9.70;;;14.70;99.90;;;;;;6180971;23;20017;-86
2023/07/22 06:37:35;;;;;;;14.57;8.75;;;14.80;99.90;;;;;;6152908;23;20100;-87
2023/07/22 06:40:02;;;;;;;21.20;10.23;;;14.90;99.90;;;;;;6151543;23;20028;-87
2023/07/22 06:42:27;;;;;;;15.40;8.80;;;14.90;99.90;;;;;;6128419;23;20020;-86
2023/07/22 06:44:53;;;;;;;16.80;9.23;;;15.00;99.90;;;;;;6179659;23;20100;-87
2023/07/22 06:47:19;;;;;;;17.52;8.75;;;15.00;99.90;;;;;;6152282;23;20483;-87
2023/07/22 06:49:44;;;;;;;17.20;9.15;;;15.10;99.90;;;;;;6150780;23;20013;-87
2023/07/22 06:52:10;;;;;;;19.70;9.20;;;15.10;99.90;;;;;;6151272;23;20018;-84
2023/07/22 06:54:36;;;;;;;16.50;8.45;;;15.20;99.90;;;;;;6151889;23;20013;-85
2023/07/22 06:57:02;;;;;;;16.30;9.05;;;15.30;99.90;;;;;;6127288;23;20051;-85
2023/07/22 06:59:28;;;;;;;18.50;9.85;;;15.40;99.90;;;;;;6180234;23;20016;-84
2023/07/22 07:01:54;;;;;;;14.93;8.32;;;15.40;99.90;;;;;;6153927;23;20019;-84
2023/07/22 07:04:20;;;;;;;16.17;10.02;;;15.50;99.90;;;;;;6153776;23;20032;-85
2023/07/22 07:06:46;;;;;;;17.23;9.65;;;15.60;99.90;;;;;;6153994;23;20013;-84
2023/07/22 07:09:12;;;;;;;16.40;10.32;;;15.60;99.90;;;;;;6153635;23;20032;-83
2023/07/22 07:11:39;;;;;;;17.42;9.38;;;15.70;99.90;;;;;;6128882;23;20092;-84
2023/07/22 07:14:08;;;;;;;15.55;9.52;;;15.80;99.90;;;;;;6154149;23;20044;-85
2023/07/22 07:16:33;;;;;;;17.85;9.07;;;15.90;99.90;;;;;;6180814;23;20017;-84
2023/07/22 07:19:00;;;;;;;16.85;9.75;;;16.00;99.90;;;;;;6152972;23;20020;-84
2023/07/22 07:21:26;;;;;;;17.80;9.48;;;16.00;99.90;;;;;;6153419;23;20067;-84
2023/07/22 07:23:53;;;;;;;14.93;9.60;;;16.00;99.90;;;;;;6153202;23;20017;-85
2023/07/22 07:26:19;;;;;;;16.25;9.55;;;16.00;99.90;;;;;;6153409;23;20025;-84
2023/07/22 07:28:52;;;;;;;17.85;9.95;;;16.00;99.90;;;;;;6154044;23;20717;-84
2023/07/22 07:31:18;;;;;;;18.52;9.23;;;15.90;99.90;;;;;;6178440;23;20336;-85
2023/07/22 07:33:46;;;;;;;17.50;9.57;;;15.90;99.90;;;;;;6178420;23;20017;-84
2023/07/22 07:36:12;;;;;;;16.25;9.02;;;15.80;99.90;;;;;;6153470;23;20009;-83
2023/07/22 07:38:38;;;;;;;16.92;9.32;;;15.80;99.90;;;;;;6127480;23;20009;-83
2023/07/22 07:41:07;;;;;;;16.42;9.63;;;15.90;99.90;;;;;;6178666;23;20071;-84
2023/07/22 07:43:39;;;;;;;18.05;10.38;;;15.90;99.90;;;;;;6181585;23;20040;-91
2023/07/22 07:46:21;;;;;;;17.15;9.25;;;15.90;99.90;;;;;;6128862;23;20020;-90
2023/07/22 07:48:57;;;;;;;18.85;9.50;;;16.00;99.90;;;;;;6181280;23;20021;-85
2023/07/22 07:51:26;;;;;;;14.82;8.60;;;16.10;99.90;;;;;;6180981;23;20063;-85
2023/07/22 07:53:52;;;;;;;17.33;9.82;;;16.20;99.90;;;;;;6154891;23;20013;-86
2023/07/22 07:56:18;;;;;;;18.35;9.27;;;16.30;99.90;;;;;;6180514;23;20139;-82
2023/07/22 07:58:49;;;;;;;12.50;7.30;;;16.40;99.90;;;;;;6154145;23;20088;-82
2023/07/22 08:01:15;;;;;;;12.35;6.82;;;16.60;99.90;;;;;;6152646;23;20009;-87
2023/07/22 08:03:42;;;;;;;11.73;6.65;;;16.80;99.90;;;;;;6129477;23;20013;-87
2023/07/22 08:06:12;;;;;;;12.43;6.85;;;17.00;99.90;;;;;;6154384;23;20023;-89
2023/07/22 08:08:39;;;;;;;12.25;7.00;;;17.20;99.90;;;;;;6154431;23;20048;-87
2023/07/22 08:11:08;;;;;;;11.88;6.43;;;17.40;99.90;;;;;;6178753;23;20009;-81
2023/07/22 08:13:34;;;;;;;10.60;6.53;;;17.60;99.90;;;;;;6153463;23;20021;-82
2023/07/22 08:16:11;;;;;;;11.63;6.78;;;17.70;99.90;;;;;;6179323;23;20020;-83
2023/07/22 08:18:37;;;;;;;13.85;6.53;;;17.80;99.90;;;;;;6180384;23;20031;-83
2023/07/22 08:21:06;;;;;;;9.90;6.20;;;17.90;99.90;;;;;;6152840;23;20013;-83
2023/07/22 08:23:31;;;;;;;12.25;6.65;;;18.00;99.90;;;;;;6153483;23;20103;-83
2023/07/22 08:25:57;;;;;;;9.48;5.65;;;18.10;99.90;;;;;;6127868;23;20349;-84
2023/07/22 08:28:38;;;;;;;11.48;5.95;;;18.10;99.90;;;;;;6178840;23;20091;-83
2023/07/22 08:31:04;;;;;;;10.52;5.88;;;18.10;99.90;;;;;;6150035;23;20017;-83
2023/07/22 08:33:31;;;;;;;14.05;6.25;;;18.10;99.90;;;;;;6152683;23;20075;-84
2023/07/22 08:35:56;;;;;;;9.80;5.32;;;18.10;99.90;;;;;;6178940;23;20332;-83
2023/07/22 08:38:22;;;;;;;10.18;5.47;;;18.10;99.90;;;;;;6179723;23;20051;-84
2023/07/22 08:40:53;;;;;;;11.98;5.88;;;18.10;99.90;;;;;;6152885;23;20024;-84
2023/07/22 08:43:22;;;;;;;8.27;4.95;;;18.20;99.90;;;;;;6153366;23;20024;-84
2023/07/22 08:45:50;;;;;;;7.82;5.00;;;18.30;99.90;;;;;;6153138;23;20020;-83
2023/07/22 08:48:21;;;;;;;7.47;4.97;;;18.30;99.90;;;;;;6153103;23;20040;-83
2023/07/22 08:51:04;;;;;;;10.15;5.03;;;18.50;99.90;;;;;;6153505;23;20017;-83
2023/07/22 08:53:33;;;;;;;9.30;5.43;;;18.50;99.90;;;;;;6179447;23;20451;-83
2023/07/22 08:55:58;;;;;;;11.70;6.30;;;18.60;99.90;;;;;;6152739;23;20088;-84
2023/07/22 08:58:25;;;;;;;9.55;5.85;;;18.60;99.90;;;;;;6128935;23;20043;-83
2023/07/22 09:00:51;;;;;;;11.40;5.97;;;18.60;99.90;;;;;;6178120;23;20017;-84
2023/07/22 09:03:18;;;;;;;10.70;6.40;;;18.50;99.90;;;;;;6178974;23;20048;-85
2023/07/22 09:05:45;;;;;;;11.85;6.40;;;18.40;99.90;;;;;;6179647;23;20519;-84
2023/07/22 09:08:11;;;;;;;13.43;7.20;;;18.40;99.90;;;;;;6178616;23;20028;-85
2023/07/22 09:10:37;;;;;;;13.82;7.38;;;18.30;99.90;;;;;;6153653;23;20017;-84
2023/07/22 09:13:03;;;;;;;11.15;7.25;;;18.20;99.90;;;;;;6179263;23;20028;-84
2023/07/22 09:15:31;;;;;;;14.82;8.13;;;18.20;99.90;;;;;;6179498;23;20218;-85
2023/07/22 09:17:57;;;;;;;13.80;7.60;;;18.10;99.90;;;;;;6152614;23;20368;-84
2023/07/22 09:20:23;;;;;;;15.23;8.18;;;18.00;99.90;;;;;;6153320;23;20021;-86
2023/07/22 09:22:52;;;;;;;14.88;8.07;;;17.90;99.90;;;;;;6153129;23;20520;-84
2023/07/22 09:25:20;;;;;;;17.20;7.97;;;17.80;99.90;;;;;;6151524;23;20021;-84
2023/07/22 09:27:47;;;;;;;14.63;8.10;;;17.70;99.90;;;;;;6151293;23;20313;-84
2023/07/22 09:30:26;;;;;;;13.05;7.90;;;17.60;99.90;;;;;;6149106;23;20336;-84
2023/07/22 09:32:56;;;;;;;13.02;7.55;;;17.60;99.90;;;;;;6150369;23;20191;-84
2023/07/22 09:35:24;;;;;;;13.95;8.07;;;17.50;99.90;;;;;;6176731;23;20013;-84
2023/07/22 09:37:49;;;;;;;14.93;8.05;;;17.50;99.90;;;;;;6177303;23;20021;-84
2023/07/22 09:40:20;;;;;;;15.18;7.60;;;17.50;99.90;;;;;;6149215;23;20016;-84
2023/07/22 09:42:54;;;;;;;12.45;7.70;;;17.50;99.90;;;;;;6150474;23;20024;-85
2023/07/22 09:45:23;;;;;;;13.45;9.05;;;17.60;99.90;;;;;;6151656;23;20044;-85
2023/07/22 09:47:50;;;;;;;14.13;8.73;;;17.60;99.90;;;;;;6178146;23;20064;-85
2023/07/22 09:50:17;;;;;;;19.77;10.35;;;17.70;99.90;;;;;;6151334;23;20013;-85
2023/07/22 09:52:48;;;;;;;15.10;9.65;;;17.70;99.90;;;;;;6151324;23;20044;-85
2023/07/22 09:55:23;;;;;;;15.45;9.63;;;17.80;99.90;;;;;;6152173;23;20021;-84
2023/07/22 09:57:56;;;;;;;15.95;9.95;;;17.80;99.90;;;;;;6127828;23;20050;-84
2023/07/22 10:00:25;;;;;;;14.07;8.65;;;17.90;99.90;;;;;;6152839;23;20013;-84
2023/07/22 10:02:52;;;;;;;13.32;7.72;;;17.80;99.90;;;;;;6152763;23;20507;-85
2023/07/22 10:05:19;;;;;;;12.93;8.55;;;17.90;99.90;;;;;;6154135;23;20587;-87
2023/07/22 10:07:48;;;;;;;12.38;7.65;;;17.90;99.90;;;;;;6132507;23;20048;-84
2023/07/22 10:10:16;;;;;;;9.93;6.20;;;17.90;99.90;;;;;;6156478;23;20071;-87
2023/07/22 10:12:42;;;;;;;12.13;6.68;;;17.90;99.90;;;;;;6184120;23;20013;-85
2023/07/22 10:15:10;;;;;;;8.90;5.55;;;18.00;99.90;;;;;;6154787;23;20382;-86
2023/07/22 10:17:36;;;;;;;8.55;4.80;;;18.00;99.90;;;;;;6154909;23;20013;-84
2023/07/22 10:20:07;;;;;;;8.63;4.63;;;18.00;99.90;;;;;;6182447;23;20017;-84
2023/07/22 10:22:37;;;;;;;9.95;4.80;;;17.90;99.90;;;;;;6157718;23;20068;-83
2023/07/22 10:25:09;;;;;;;8.05;4.65;;;17.90;99.90;;;;;;6162447;23;20024;-84
2023/07/22 10:27:39;;;;;;;7.88;4.85;;;17.90;99.90;;;;;;6159086;23;20013;-85
2023/07/22 10:30:08;;;;;;;7.78;4.40;;;17.90;99.90;;;;;;6154516;23;20013;-85
2023/07/22 10:32:36;;;;;;;10.23;4.40;;;17.90;99.90;;;;;;6152695;23;20067;-84
2023/07/22 10:35:03;;;;;;;7.40;4.28;;;17.90;99.90;;;;;;6154407;23;20100;-84
2023/07/22 10:37:35;;;;;;;7.55;4.18;;;17.80;99.90;;;;;;6154495;23;20012;-84
2023/07/22 10:40:19;;;;;;;9.30;5.10;;;17.80;99.90;;;;;;6180377;23;20013;-85
2023/07/22 10:43:02;;;;;;;8.50;4.75;;;17.80;99.90;;;;;;6154021;23;20032;-86
2023/07/22 10:45:52;;;;;;;8.52;5.25;;;17.80;99.90;;;;;;6153199;23;20020;-85
2023/07/22 10:48:19;;;;;;;8.35;4.70;;;17.80;99.90;;;;;;6179947;23;20029;-84
2023/07/22 10:50:51;;;;;;;9.93;5.32;;;17.80;99.90;;;;;;6180794;23;20013;-84
2023/07/22 10:53:25;;;;;;;8.88;5.75;;;17.90;99.90;;;;;;6179744;23;20013;-84
2023/07/22 10:56:07;;;;;;;11.07;6.30;;;17.90;99.90;;;;;;6179568;23;20013;-83
2023/07/22 10:58:45;;;;;;;11.70;6.90;;;17.80;99.90;;;;;;6180693;23;20096;-83
2023/07/22 11:01:31;;;;;;;10.98;6.63;;;17.90;99.90;;;;;;6154755;23;20067;-83
2023/07/22 11:04:35;;;;;;;9.10;6.13;;;18.00;99.90;;;;;;6154165;23;20013;-84
2023/07/22 11:07:04;;;;;;;11.32;6.78;;;17.90;99.90;;;;;;6181507;23;20020;-84
2023/07/22 11:09:30;;;;;;;12.65;7.22;;;17.80;99.90;;;;;;6153078;23;20013;-86
2023/07/22 11:12:16;;;;;;;13.38;7.20;;;17.80;99.90;;;;;;6155745;23;20075;-85
2023/07/22 11:14:49;;;;;;;11.45;6.90;;;17.70;99.90;;;;;;6131850;23;20033;-85
2023/07/22 11:17:17;;;;;;;12.73;6.93;;;17.60;99.90;;;;;;6134350;23;20048;-85
2023/07/22 11:19:43;;;;;;;12.13;7.65;;;17.60;99.90;;;;;;6156986;23;20057;-86
2023/07/22 11:22:10;;;;;;;14.00;7.43;;;17.60;99.90;;;;;;6182433;23;20024;-84
2023/07/22 11:24:37;;;;;;;14.52;8.45;;;17.50;99.90;;;;;;6157458;23;20024;-83
2023/07/22 11:27:08;;;;;;;13.73;8.65;;;17.50;99.90;;;;;;6159954;23;20024;-84
2023/07/22 11:29:34;;;;;;;11.38;7.78;;;17.50;99.90;;;;;;6158065;23;20024;-84
2023/07/22 11:32:01;;;;;;;13.15;8.82;;;17.50;99.90;;;;;;6157078;23;20013;-84
2023/07/22 11:34:33;;;;;;;14.95;9.00;;;17.50;99.90;;;;;;6155070;23;20020;-82
2023/07/22 11:36:58;;;;;;;13.70;8.35;;;17.40;99.90;;;;;;6154483;23;20075;-83
2023/07/22 11:39:26;;;;;;;11.55;7.90;;;17.40;99.90;;;;;;6154002;23;20013;-82
2023/07/22 11:41:53;;;;;;;11.43;8.45;;;17.50;99.90;;;;;;6157051;23;20036;-84
2023/07/22 11:44:21;;;;;;;13.27;9.05;;;17.40;99.90;;;;;;6157925;23;20043;-82
2023/07/22 11:46:56;;;;;;;16.38;10.10;;;17.40;99.90;;;;;;6157052;23;20013;-81
2023/07/22 11:49:30;;;;;;;14.13;9.43;;;17.40;99.90;;;;;;6154683;23;20013;-80
2023/07/22 11:52:11;;;;;;;13.63;9.05;;;17.40;99.90;;;;;;6153719;23;20395;-81
2023/07/22 11:54:41;;;;;;;12.98;8.10;;;17.40;99.90;;;;;;6179820;23;20059;-80
2023/07/22 11:57:16;;;;;;;14.23;9.75;;;17.30;99.90;;;;;;6152582;23;20365;-79
2023/07/22 11:59:56;;;;;;;13.90;8.88;;;17.20;99.90;;;;;;6153830;23;20055;-82
2023/07/22 12:02:31;;;;;;;19.55;10.73;;;17.30;99.90;;;;;;6130378;23;20020;-79
2023/07/22 12:05:06;;;;;;;14.70;9.95;;;17.20;99.90;;;;;;6152812;23;20044;-79
2023/07/22 12:07:33;;;;;;;15.93;9.13;;;17.20;99.90;;;;;;6178714;23;20020;-79
2023/07/22 12:10:01;;;;;;;13.80;8.85;;;17.10;99.90;;;;;;6153106;23;20361;-80
2023/07/22 12:12:49;;;;;;;13.60;8.50;;;17.10;99.90;;;;;;6152991;23;20017;-79
2023/07/22 12:15:20;;;;;;;14.85;9.23;;;17.10;99.90;;;;;;6128061;23;20016;-83
2023/07/22 12:18:15;;;;;;;12.88;8.75;;;17.10;99.90;;;;;;6154521;23;20036;-82
2023/07/22 12:20:41;;;;;;;13.55;8.75;;;17.10;99.90;;;;;;6141305;23;20043;-83
2023/07/22 12:23:07;;;;;;;13.90;8.48;;;17.10;99.90;;;;;;6156133;23;20056;-84
2023/07/22 12:25:32;;;;;;;12.15;7.53;;;17.10;99.90;;;;;;6155458;23;20040;-84
2023/07/22 12:27:59;;;;;;;14.40;10.20;;;17.10;99.90;;;;;;6181779;23;20023;-86
2023/07/22 12:30:27;;;;;;;12.30;8.85;;;17.10;99.90;;;;;;6130826;23;20013;-83
2023/07/22 12:32:53;;;;;;;11.48;7.22;;;17.10;99.90;;;;;;6129804;23;20060;-84
2023/07/22 12:35:19;;;;;;;13.13;8.50;;;17.10;99.90;;;;;;6155429;23;20020;-85
2023/07/22 12:37:45;;;;;;;14.68;9.80;;;17.10;99.90;;;;;;6155630;23;20105;-86
2023/07/22 12:40:12;;;;;;;11.90;8.68;;;17.00;99.90;;;;;;6157308;23;20432;-85
2023/07/22 12:42:37;;;;;;;13.98;8.95;;;17.00;99.90;;;;;;6157665;23;20017;-85